Time;durP1;ratioP1;P1;durP2;ratioP2;P2;SDS_P1;SDS_P2;PMS_P1;PMS_P2;Temp;Humidity;BMP_temperature;BMP_pressure;BME280_temperature;BME280_humidity;BME280_pressure;Samples;Min_cycle;Max_cycle;Signal;HPM_P1;HPM_P2
2022/08/06 00:01:30;;;;;;;7.35;7.05;;;;;;;-143.83;100.00;62900.06;5109830;28;20024;-65
2022/08/06 00:03:56;;;;;;;8.23;7.82;;;;;;;-143.83;100.00;62900.06;5103889;28;20115;-65
2022/08/06 00:06:22;;;;;;;7.65;7.35;;;;;;;-143.83;100.00;62900.06;5110537;27;20024;-65
2022/08/06 00:08:48;;;;;;;8.20;7.80;;;;;;;-143.83;100.00;62900.06;5104871;28;20027;-63
2022/08/06 00:11:13;;;;;;;7.60;7.30;;;;;;;-143.83;100.00;62900.06;5113149;28;20024;-64
2022/08/06 00:13:39;;;;;;;7.57;7.28;;;;;;;-143.83;100.00;62900.06;5114621;28;20510;-64
2022/08/06 00:16:05;;;;;;;7.90;7.60;;;;;;;-143.83;100.00;62900.06;5108677;28;20050;-65
2022/08/06 00:18:30;;;;;;;7.65;7.35;;;;;;;-143.83;100.00;62900.06;5112521;28;20070;-65
2022/08/06 00:20:56;;;;;;;7.70;7.40;;;;;;;-143.83;100.00;62900.06;5110929;28;20016;-65
2022/08/06 00:23:21;;;;;;;7.82;7.53;;;;;;;-143.83;100.00;62900.06;5103113;28;20034;-65
2022/08/06 00:25:47;;;;;;;7.80;7.50;;;;;;;-143.83;100.00;62900.06;5107637;28;20428;-64
2022/08/06 00:28:13;;;;;;;7.68;7.38;;;;;;;-143.83;100.00;62900.06;5107625;28;20106;-65
2022/08/06 00:30:38;;;;;;;7.60;7.30;;;;;;;-143.83;100.00;62900.06;5110182;28;20065;-65
2022/08/06 00:33:04;;;;;;;7.50;7.20;;;;;;;-143.83;100.00;62900.06;5110442;28;20394;-65
2022/08/06 00:35:29;;;;;;;7.82;7.53;;;;;;;-143.83;100.00;62900.06;5101109;28;20030;-65
2022/08/06 00:37:56;;;;;;;7.72;7.43;;;;;;;-143.83;100.00;62900.06;5105388;28;20107;-64
2022/08/06 00:40:22;;;;;;;8.20;7.82;;;;;;;-143.83;100.00;62900.06;5109011;28;20032;-64
2022/08/06 00:42:47;;;;;;;7.55;7.25;;;;;;;-143.83;100.00;62900.06;5105551;28;20220;-66
2022/08/06 00:45:13;;;;;;;7.90;7.60;;;;;;;-143.83;100.00;62900.06;5112162;28;20166;-65
2022/08/06 00:47:38;;;;;;;7.60;7.30;;;;;;;-143.83;100.00;62900.06;5113544;28;20112;-65
2022/08/06 00:50:04;;;;;;;7.80;7.50;;;;;;;-143.83;100.00;62900.06;5112875;28;20136;-65
2022/08/06 00:52:30;;;;;;;7.63;7.32;;;;;;;-143.83;100.00;62900.06;5104320;28;20118;-65
2022/08/06 00:54:55;;;;;;;7.90;7.60;;;;;;;-143.83;100.00;62900.06;5111312;28;20595;-64
2022/08/06 00:57:21;;;;;;;8.15;7.78;;;;;;;-143.83;100.00;62900.06;5111097;28;20059;-65
2022/08/06 00:59:47;;;;;;;7.57;7.28;;;;;;;-143.83;100.00;62900.06;5101354;28;20118;-65
2022/08/06 01:02:12;;;;;;;7.50;7.20;;;;;;;-143.83;100.00;62900.06;5111807;28;20103;-64
2022/08/06 01:04:38;;;;;;;7.85;7.55;;;;;;;-143.83;100.00;62900.06;5106895;27;20030;-64
2022/08/06 01:07:03;;;;;;;7.53;7.22;;;;;;;-143.83;100.00;62900.06;5107650;28;20065;-64
2022/08/06 01:09:29;;;;;;;8.00;7.70;;;;;;;-143.83;100.00;62900.06;5106539;28;20073;-65
2022/08/06 01:11:54;;;;;;;7.70;7.40;;;;;;;-143.83;100.00;62900.06;5115285;28;20377;-65
2022/08/06 01:14:20;;;;;;;7.70;7.40;;;;;;;-143.83;100.00;62900.06;5116696;27;20019;-64
2022/08/06 01:16:51;;;;;;;7.50;7.20;;;;;;;-143.83;100.00;62900.06;5110942;28;20066;-65
2022/08/06 01:19:42;;;;;;;8.48;8.07;;;;;;;-143.83;100.00;62900.06;5113382;28;20038;-64
2022/08/06 01:22:32;;;;;;;8.05;7.75;;;;;;;-143.83;100.00;62900.06;5107775;28;20110;-65
2022/08/06 01:25:35;;;;;;;8.00;7.70;;;;;;;-143.83;100.00;62900.06;5109890;28;20150;-64
2022/08/06 01:28:20;;;;;;;7.90;7.60;;;;;;;-143.83;100.00;62900.06;5113037;28;20031;-65
2022/08/06 01:31:09;;;;;;;7.75;7.45;;;;;;;-143.83;100.00;62900.06;5105469;28;20024;-64
2022/08/06 01:33:41;;;;;;;7.93;7.63;;;;;;;-143.83;100.00;62900.06;5098137;27;20332;-64
2022/08/06 01:36:13;;;;;;;8.00;7.70;;;;;;;-143.83;100.00;62900.06;5106223;28;20038;-65
2022/08/06 01:38:45;;;;;;;7.72;7.43;;;;;;;-143.83;100.00;62900.06;5110346;28;20027;-65
2022/08/06 01:41:38;;;;;;;7.57;7.28;;;;;;;-143.83;100.00;62900.06;5112411;28;20027;-65
2022/08/06 01:44:03;;;;;;;7.45;7.15;;;;;;;-143.83;100.00;62900.06;5111389;28;20047;-64
2022/08/06 01:46:30;;;;;;;7.80;7.50;;;;;;;-143.83;100.00;62900.06;5116932;27;20080;-66
2022/08/06 01:48:58;;;;;;;7.80;7.50;;;;;;;-143.83;100.00;62900.06;5101920;28;20108;-64
2022/08/06 01:51:26;;;;;;;7.90;7.60;;;;;;;-143.83;100.00;62900.06;5103885;28;20062;-65
2022/08/06 01:53:53;;;;;;;7.60;7.30;;;;;;;-143.83;100.00;62900.06;5113115;28;20065;-64
2022/08/06 01:56:22;;;;;;;7.38;7.07;;;;;;;-143.83;100.00;62900.06;5109670;28;20028;-64
2022/08/06 01:58:51;;;;;;;7.53;7.22;;;;;;;-143.83;100.00;62900.06;5108432;28;20089;-65
2022/08/06 02:01:18;;;;;;;7.70;7.40;;;;;;;-143.83;100.00;62900.06;5106275;28;20073;-65
2022/08/06 02:03:47;;;;;;;7.93;7.63;;;;;;;-143.83;100.00;62900.06;5106912;28;20036;-64
2022/08/06 02:06:16;;;;;;;7.60;7.30;;;;;;;-143.83;100.00;62900.06;5094309;28;20487;-65
2022/08/06 02:08:44;;;;;;;7.40;7.10;;;;;;;-143.83;100.00;62900.06;5109537;28;20032;-66
2022/08/06 02:11:11;;;;;;;7.70;7.40;;;;;;;-143.83;100.00;62900.06;5109227;28;20530;-65
2022/08/06 02:13:38;;;;;;;8.13;7.80;;;;;;;-143.83;100.00;62900.06;5108803;28;20016;-64
2022/08/06 02:16:08;;;;;;;7.90;7.60;;;;;;;-143.83;100.00;62900.06;5107681;28;20098;-65
2022/08/06 02:18:37;;;;;;;7.93;7.63;;;;;;;-143.83;100.00;62900.06;5111565;28;20051;-65
2022/08/06 02:21:12;;;;;;;7.95;7.63;;;;;;;-143.83;100.00;62900.06;5111682;28;20080;-65
2022/08/06 02:23:39;;;;;;;7.90;7.60;;;;;;;-143.83;100.00;62900.06;5113277;28;20418;-65
2022/08/06 02:26:05;;;;;;;8.02;7.72;;;;;;;-143.83;100.00;62900.06;5108413;28;20032;-64
2022/08/06 02:28:34;;;;;;;7.80;7.50;;;;;;;-143.83;100.00;62900.06;5112019;28;20098;-65
2022/08/06 02:31:00;;;;;;;8.00;7.70;;;;;;;-143.83;100.00;62900.06;5111576;28;20023;-64
2022/08/06 02:33:27;;;;;;;7.93;7.63;;;;;;;-143.83;100.00;62900.06;5111243;28;20024;-65
2022/08/06 02:36:01;;;;;;;7.80;7.50;;;;;;;-143.83;100.00;62900.06;5105418;28;20046;-65
2022/08/06 02:38:32;;;;;;;8.45;8.05;;;;;;;-143.83;100.00;62900.06;5100239;28;20494;-66
2022/08/06 02:41:08;;;;;;;7.90;7.60;;;;;;;-143.83;100.00;62900.06;5111975;28;20027;-65
2022/08/06 02:43:37;;;;;;;7.65;7.35;;;;;;;-143.83;100.00;62900.06;5106417;28;20036;-65
2022/08/06 02:46:27;;;;;;;7.97;7.68;;;;;;;-143.83;100.00;62900.06;5108993;28;20027;-65
2022/08/06 02:49:03;;;;;;;7.75;7.45;;;;;;;-143.83;100.00;62900.06;5102067;28;20058;-65
2022/08/06 02:51:34;;;;;;;7.88;7.57;;;;;;;-143.83;100.00;62900.06;5104231;28;20391;-65
2022/08/06 02:54:08;;;;;;;8.23;7.88;;;;;;;-143.83;100.00;62900.06;5102931;28;20111;-64
2022/08/06 02:56:40;;;;;;;8.10;7.75;;;;;;;-143.83;100.00;62900.06;5109041;28;20027;-64
2022/08/06 02:59:08;;;;;;;7.72;7.43;;;;;;;-143.83;100.00;62900.06;5107344;28;20031;-65
2022/08/06 03:01:48;;;;;;;7.78;7.47;;;;;;;-143.83;100.00;62900.06;5098513;28;20024;-65
2022/08/06 03:04:15;;;;;;;8.52;8.13;;;;;;;-143.83;100.00;62900.06;5102995;28;20032;-66
2022/08/06 03:06:45;;;;;;;8.50;8.10;;;;;;;-143.83;100.00;62900.06;5100612;28;20027;-65
2022/08/06 03:09:12;;;;;;;7.82;7.53;;;;;;;-143.83;100.00;62900.06;5109073;28;20027;-64
2022/08/06 03:11:40;;;;;;;8.65;8.25;;;;;;;-143.83;100.00;62900.06;5104352;28;20084;-64
2022/08/06 03:14:08;;;;;;;7.93;7.63;;;;;;;-143.83;100.00;62900.06;5106207;28;20028;-64
2022/08/06 03:16:36;;;;;;;7.70;7.40;;;;;;;-143.83;100.00;62900.06;5108902;28;20020;-64
2022/08/06 03:19:03;;;;;;;7.65;7.35;;;;;;;-143.83;100.00;62900.06;5097444;28;20125;-64
2022/08/06 03:21:30;;;;;;;8.23;7.85;;;;;;;-143.83;100.00;62900.06;5102441;28;20027;-65
2022/08/06 03:23:59;;;;;;;8.27;7.88;;;;;;;-143.83;100.00;62900.06;5107285;28;20040;-64
2022/08/06 03:26:26;;;;;;;8.02;7.72;;;;;;;-143.83;100.00;62900.06;5103625;28;20016;-65
2022/08/06 03:28:55;;;;;;;7.90;7.60;;;;;;;-143.83;100.00;62900.06;5102332;28;20606;-64
2022/08/06 03:31:22;;;;;;;7.90;7.60;;;;;;;-143.83;100.00;62900.06;5106912;28;20369;-65
2022/08/06 03:33:49;;;;;;;8.27;7.88;;;;;;;-143.83;100.00;62900.06;5103334;28;20030;-64
2022/08/06 03:36:15;;;;;;;7.93;7.63;;;;;;;-143.83;100.00;62900.06;5105071;28;20031;-65
2022/08/06 03:38:46;;;;;;;7.93;7.63;;;;;;;-143.83;100.00;62900.06;5108744;28;20032;-65
2022/08/06 03:41:13;;;;;;;8.15;7.85;;;;;;;-143.83;100.00;62900.06;5109135;28;20043;-67
2022/08/06 03:43:38;;;;;;;7.60;7.30;;;;;;;-143.83;100.00;62900.06;5109633;28;20495;-69
2022/08/06 03:46:06;;;;;;;8.15;7.82;;;;;;;-143.83;100.00;62900.06;5109654;28;20035;-69
2022/08/06 03:48:39;;;;;;;8.00;7.70;;;;;;;-143.83;100.00;62900.06;5108345;28;20459;-68
2022/08/06 03:51:19;;;;;;;7.57;7.28;;;;;;;-143.83;100.00;62900.06;5096828;28;20439;-70
2022/08/06 03:53:47;;;;;;;8.13;7.82;;;;;;;-143.83;100.00;62900.06;5100401;28;20020;-68
2022/08/06 03:56:18;;;;;;;7.93;7.63;;;;;;;-143.83;100.00;62900.06;5111600;28;20080;-69
2022/08/06 03:58:46;;;;;;;7.60;7.30;;;;;;;-143.83;100.00;62900.06;5101799;28;20028;-69
2022/08/06 04:01:16;;;;;;;7.82;7.53;;;;;;;-143.83;100.00;62900.06;5101746;28;20236;-68
2022/08/06 04:03:44;;;;;;;7.80;7.50;;;;;;;-143.83;100.00;62900.06;5108733;28;20051;-67
2022/08/06 04:06:11;;;;;;;7.93;7.63;;;;;;;-143.83;100.00;62900.06;5105766;28;20074;-69
2022/08/06 04:08:41;;;;;;;7.70;7.40;;;;;;;-143.83;100.00;62900.06;5111817;28;20023;-69
2022/08/06 04:11:08;;;;;;;7.80;7.50;;;;;;;-143.83;100.00;62900.06;5106967;28;20031;-69
2022/08/06 04:13:36;;;;;;;7.80;7.50;;;;;;;-143.83;100.00;62900.06;5112655;28;20359;-69
2022/08/06 04:16:02;;;;;;;7.70;7.40;;;;;;;-143.83;100.00;62900.06;5111879;27;20059;-68
2022/08/06 04:18:33;;;;;;;8.00;7.70;;;;;;;-143.83;100.00;62900.06;5106395;28;20466;-68
2022/08/06 04:21:04;;;;;;;7.90;7.60;;;;;;;-143.83;100.00;62900.06;5108856;28;20047;-68
2022/08/06 04:23:30;;;;;;;7.65;7.35;;;;;;;-143.83;100.00;62900.06;5112143;28;20027;-68
2022/08/06 04:25:57;;;;;;;7.90;7.60;;;;;;;-143.83;100.00;62900.06;5113557;28;20015;-69
2022/08/06 04:28:26;;;;;;;8.07;7.78;;;;;;;-143.83;100.00;62900.06;5106777;28;20059;-68
2022/08/06 04:30:54;;;;;;;7.95;7.65;;;;;;;-143.83;100.00;62900.06;5110414;28;20054;-68
2022/08/06 04:33:22;;;;;;;8.00;7.70;;;;;;;-143.83;100.00;62900.06;5106972;27;20048;-67
2022/08/06 04:35:48;;;;;;;7.70;7.40;;;;;;;-143.83;100.00;62900.06;5103506;28;20090;-68
2022/08/06 04:38:17;;;;;;;8.07;7.78;;;;;;;-143.83;100.00;62900.06;5110086;28;20027;-67
2022/08/06 04:40:42;;;;;;;8.00;7.70;;;;;;;-143.83;100.00;62900.06;5110014;28;20039;-67
2022/08/06 04:43:09;;;;;;;7.90;7.60;;;;;;;-143.83;100.00;62900.06;5112072;28;20047;-69
2022/08/06 04:45:38;;;;;;;7.90;7.60;;;;;;;-143.83;100.00;62900.06;5109755;28;20024;-68
2022/08/06 04:48:07;;;;;;;8.00;7.70;;;;;;;-143.83;100.00;62900.06;5106830;28;20100;-68
2022/08/06 04:50:34;;;;;;;8.00;7.70;;;;;;;-143.83;100.00;62900.06;5106082;28;20034;-68
2022/08/06 04:53:09;;;;;;;7.80;7.50;;;;;;;-143.83;100.00;62900.06;5110850;28;20379;-69
2022/08/06 04:55:35;;;;;;;7.78;7.47;;;;;;;-143.83;100.00;62900.06;5112811;28;20031;-68
2022/08/06 04:58:03;;;;;;;7.70;7.40;;;;;;;-143.83;100.00;62900.06;5114290;28;20136;-67
2022/08/06 05:00:32;;;;;;;7.70;7.40;;;;;;;-143.83;100.00;62900.06;5113458;27;20403;-67
2022/08/06 05:02:58;;;;;;;7.63;7.32;;;;;;;-143.83;100.00;62900.06;5115839;27;20023;-66
2022/08/06 05:05:24;;;;;;;7.95;7.65;;;;;;;-143.83;100.00;62900.06;5109488;27;20019;-68
2022/08/06 05:07:54;;;;;;;7.88;7.57;;;;;;;-143.83;100.00;62900.06;5112861;28;20023;-67
2022/08/06 05:10:22;;;;;;;7.85;7.55;;;;;;;-143.83;100.00;62900.06;5111707;28;20023;-68
2022/08/06 05:12:54;;;;;;;7.55;7.25;;;;;;;-143.83;100.00;62900.06;5113435;28;20065;-68
2022/08/06 05:15:33;;;;;;;7.80;7.50;;;;;;;-143.83;100.00;62900.06;5108860;28;20055;-69
2022/08/06 05:18:06;;;;;;;8.10;7.80;;;;;;;-143.83;100.00;62900.06;5113229;28;20032;-69
2022/08/06 05:20:35;;;;;;;7.93;7.63;;;;;;;-143.83;100.00;62900.06;5112175;28;20027;-68
2022/08/06 05:23:15;;;;;;;7.88;7.57;;;;;;;-143.83;100.00;62900.06;5113733;28;20024;-69
2022/08/06 05:25:41;;;;;;;8.10;7.80;;;;;;;-143.83;100.00;62900.06;5104269;28;20491;-65
2022/08/06 05:28:06;;;;;;;8.10;7.80;;;;;;;-143.83;100.00;62900.06;5108263;28;20076;-66
2022/08/06 05:30:33;;;;;;;7.80;7.50;;;;;;;-143.83;100.00;62900.06;5112764;28;20023;-65
2022/08/06 05:32:58;;;;;;;7.78;7.47;;;;;;;-143.83;100.00;62900.06;5114202;28;20034;-65
2022/08/06 05:35:25;;;;;;;7.93;7.63;;;;;;;-143.83;100.00;62900.06;5113586;28;20379;-64
2022/08/06 05:37:50;;;;;;;7.90;7.60;;;;;;;-143.83;100.00;62900.06;5112153;28;20088;-64
2022/08/06 05:40:16;;;;;;;7.90;7.60;;;;;;;-143.83;100.00;62900.06;5109013;28;20032;-66
2022/08/06 05:42:41;;;;;;;7.97;7.68;;;;;;;-143.83;100.00;62900.06;5102861;28;20475;-65
2022/08/06 05:45:11;;;;;;;7.70;7.40;;;;;;;-143.83;100.00;62900.06;5111175;28;20394;-65
2022/08/06 05:47:40;;;;;;;7.90;7.60;;;;;;;-143.83;100.00;62900.06;5113389;28;20030;-64
2022/08/06 05:50:09;;;;;;;7.57;7.28;;;;;;;-143.83;100.00;62900.06;5108214;28;20080;-64
2022/08/06 05:52:48;;;;;;;7.97;7.68;;;;;;;-143.83;100.00;62900.06;5113478;28;20027;-63
2022/08/06 05:55:21;;;;;;;8.10;7.80;;;;;;;-143.83;100.00;62900.06;5105764;28;20026;-64
2022/08/06 05:57:49;;;;;;;7.90;7.60;;;;;;;-143.83;100.00;62900.06;5110881;28;20027;-64
2022/08/06 06:00:18;;;;;;;7.72;7.43;;;;;;;-143.83;100.00;62900.06;5107295;28;20395;-65
2022/08/06 06:02:47;;;;;;;7.88;7.57;;;;;;;-143.83;100.00;62900.06;5113069;28;20023;-65
2022/08/06 06:05:13;;;;;;;7.90;7.60;;;;;;;-143.83;100.00;62900.06;5112407;28;20036;-65
2022/08/06 06:07:39;;;;;;;7.70;7.40;;;;;;;-143.83;100.00;62900.06;5112413;27;20483;-65
2022/08/06 06:10:07;;;;;;;7.90;7.60;;;;;;;-143.83;100.00;62900.06;5112751;28;20039;-64
2022/08/06 06:12:34;;;;;;;7.80;7.50;;;;;;;-143.83;100.00;62900.06;5109770;28;20038;-65
2022/08/06 06:15:02;;;;;;;7.70;7.40;;;;;;;-143.83;100.00;62900.06;5113151;28;20489;-65
2022/08/06 06:17:44;;;;;;;7.93;7.63;;;;;;;-143.83;100.00;62900.06;5109746;28;20023;-64
2022/08/06 06:20:19;;;;;;;8.07;7.78;;;;;;;-143.83;100.00;62900.06;5107354;28;20070;-65
2022/08/06 06:22:49;;;;;;;8.00;7.70;;;;;;;-143.83;100.00;62900.06;5110504;28;20392;-64
2022/08/06 06:25:53;;;;;;;7.95;7.65;;;;;;;-143.83;100.00;62900.06;5109197;28;20035;-65
2022/08/06 06:28:39;;;;;;;;;;;;;;;-143.83;100.00;62900.06;5080642;28;20084;-64
2022/08/06 06:31:29;;;;;;;8.10;7.80;;;;;;;-143.83;100.00;62900.06;5110816;28;19919;-65
2022/08/06 06:34:01;;;;;;;7.72;7.43;;;;;;;-143.83;100.00;62900.06;5111456;27;20020;-64
2022/08/06 06:36:44;;;;;;;7.72;7.43;;;;;;;-143.83;100.00;62900.06;5109703;27;20023;-65
2022/08/06 06:39:16;;;;;;;7.70;7.40;;;;;;;-143.83;100.00;62900.06;5105392;28;20051;-64
2022/08/06 06:41:54;;;;;;;7.88;7.57;;;;;;;-143.83;100.00;62900.06;5109300;28;20546;-64
2022/08/06 06:44:35;;;;;;;7.72;7.43;;;;;;;-143.83;100.00;62900.06;5106329;28;20036;-64
2022/08/06 06:47:10;;;;;;;7.57;7.28;;;;;;;-143.83;100.00;62900.06;5105868;28;20028;-65
2022/08/06 06:49:54;;;;;;;8.00;7.70;;;;;;;-143.83;100.00;62900.06;5108032;28;20068;-65
2022/08/06 06:52:28;;;;;;;7.95;7.65;;;;;;;-143.83;100.00;62900.06;5111604;27;20029;-65
2022/08/06 06:55:16;;;;;;;;;;;;;;;-143.83;100.00;62900.06;5104968;28;20020;-64
2022/08/06 06:57:47;;;;;;;8.18;7.88;;;;;;;-143.83;100.00;62900.06;5100671;28;19915;-64
2022/08/06 07:00:14;;;;;;;7.82;7.53;;;;;;;-143.83;100.00;62900.06;5108892;28;20031;-64
2022/08/06 07:02:41;;;;;;;7.72;7.43;;;;;;;-143.83;100.00;62900.06;5105279;28;20529;-64
2022/08/06 07:05:09;;;;;;;7.93;7.63;;;;;;;-143.83;100.00;62900.06;5105983;28;20024;-64
2022/08/06 07:07:39;;;;;;;7.63;7.32;;;;;;;-143.83;100.00;62900.06;5105874;28;20031;-64
2022/08/06 07:10:08;;;;;;;7.57;7.28;;;;;;;-143.83;100.00;62900.06;5107834;28;20028;-65
2022/08/06 07:12:35;;;;;;;7.75;7.45;;;;;;;-143.83;100.00;62900.06;5108576;28;20486;-64
2022/08/06 07:15:06;;;;;;;7.80;7.50;;;;;;;-143.83;100.00;62900.06;5101179;28;20032;-64
2022/08/06 07:17:35;;;;;;;7.88;7.57;;;;;;;-143.83;100.00;62900.06;5102418;28;20024;-65
2022/08/06 07:20:05;;;;;;;7.70;7.40;;;;;;;-143.83;100.00;62900.06;5105263;28;20076;-65
2022/08/06 07:22:31;;;;;;;7.38;7.07;;;;;;;-143.83;100.00;62900.06;5111430;28;20089;-65
2022/08/06 07:24:59;;;;;;;7.40;7.10;;;;;;;-143.83;100.00;62900.06;5105444;28;20027;-64
2022/08/06 07:27:30;;;;;;;7.50;7.20;;;;;;;-143.83;100.00;62900.06;5109476;28;20032;-64
2022/08/06 07:29:57;;;;;;;7.40;7.10;;;;;;;-143.83;100.00;62900.06;5110086;28;20027;-64
2022/08/06 07:32:23;;;;;;;7.50;7.20;;;;;;;-143.83;100.00;62900.06;5104489;28;20031;-68
2022/08/06 07:34:50;;;;;;;7.45;7.15;;;;;;;-143.83;100.00;62900.06;5101050;28;20502;-64
2022/08/06 07:37:20;;;;;;;7.70;7.40;;;;;;;-143.83;100.00;62900.06;5121553;28;20035;-65
2022/08/06 07:39:47;;;;;;;7.50;7.20;;;;;;;-143.83;100.00;62900.06;5114567;27;20019;-64
2022/08/06 07:42:16;;;;;;;7.30;7.00;;;;;;;-143.83;100.00;62900.06;5109426;28;20027;-65
2022/08/06 07:44:52;;;;;;;7.50;7.20;;;;;;;-143.83;100.00;62900.06;5114850;28;20164;-65
2022/08/06 07:47:21;;;;;;;7.78;7.47;;;;;;;-143.83;100.00;62900.06;5108839;28;20032;-67
2022/08/06 07:49:52;;;;;;;7.47;7.18;;;;;;;-143.83;100.00;62900.06;5109693;27;20112;-65
2022/08/06 07:52:18;;;;;;;7.55;7.25;;;;;;;-143.83;100.00;62900.06;5113251;28;20035;-66
2022/08/06 07:54:45;;;;;;;7.70;7.40;;;;;;;-143.83;100.00;62900.06;5115493;28;20470;-66
2022/08/06 07:57:12;;;;;;;7.28;6.97;;;;;;;-143.83;100.00;62900.06;5115592;28;20497;-64
2022/08/06 07:59:39;;;;;;;7.80;7.50;;;;;;;-143.83;100.00;62900.06;5115059;28;20114;-65
2022/08/06 08:02:05;;;;;;;7.38;7.07;;;;;;;-143.83;100.00;62900.06;5115726;28;20027;-66
2022/08/06 08:07:16;;;;;;;7.60;7.30;;;;;;;-143.83;100.00;62900.06;5113631;28;20030;-66
2022/08/06 08:09:45;;;;;;;7.50;7.20;;;;;;;-143.83;100.00;62900.06;5115796;28;20088;-66
2022/08/06 08:12:16;;;;;;;7.60;7.30;;;;;;;-143.83;100.00;62900.06;5114986;28;20106;-66
2022/08/06 08:14:47;;;;;;;7.75;7.45;;;;;;;-143.83;100.00;62900.06;5113728;28;20097;-66
2022/08/06 08:17:14;;;;;;;7.40;7.10;;;;;;;-143.83;100.00;62900.06;5115364;28;20027;-65
2022/08/06 08:19:41;;;;;;;7.50;7.20;;;;;;;-143.83;100.00;62900.06;5115559;28;20087;-65
2022/08/06 08:22:09;;;;;;;7.60;7.30;;;;;;;-143.83;100.00;62900.06;5115434;28;20024;-65
2022/08/06 08:24:38;;;;;;;7.68;7.38;;;;;;;-143.83;100.00;62900.06;5113843;28;20093;-66
2022/08/06 08:27:08;;;;;;;7.63;7.32;;;;;;;-143.83;100.00;62900.06;5113870;28;20055;-65
2022/08/06 08:29:34;;;;;;;7.55;7.25;;;;;;;-143.83;100.00;62900.06;5114253;28;20020;-65
2022/08/06 08:32:00;;;;;;;7.60;7.30;;;;;;;-143.83;100.00;62900.06;5113789;28;20030;-65
2022/08/06 08:34:26;;;;;;;7.47;7.18;;;;;;;-143.83;100.00;62900.06;5115039;28;20038;-65
2022/08/06 08:36:51;;;;;;;7.50;7.20;;;;;;;-143.83;100.00;62900.06;5099334;28;20366;-65
2022/08/06 08:39:17;;;;;;;7.57;7.28;;;;;;;-143.83;100.00;62900.06;5105270;28;20767;-65
2022/08/06 08:42:01;;;;;;;7.47;7.18;;;;;;;-143.83;100.00;62900.06;5114844;28;20030;-66
2022/08/06 08:44:27;;;;;;;7.40;7.10;;;;;;;-143.83;100.00;62900.06;5122460;27;20100;-66
2022/08/06 08:46:58;;;;;;;7.70;7.40;;;;;;;-143.83;100.00;62900.06;5114808;28;20027;-65
2022/08/06 08:49:47;;;;;;;7.65;7.35;;;;;;;-143.83;100.00;62900.06;5113548;28;20110;-65
2022/08/06 08:52:15;;;;;;;7.78;7.47;;;;;;;-143.83;100.00;62900.06;5114597;28;20573;-65
2022/08/06 08:54:47;;;;;;;7.80;7.50;;;;;;;-143.83;100.00;62900.06;5114681;28;20015;-66
2022/08/06 08:57:15;;;;;;;7.70;7.40;;;;;;;-143.83;100.00;62900.06;5114567;28;20031;-65
2022/08/06 08:59:42;;;;;;;7.70;7.40;;;;;;;-143.83;100.00;62900.06;5114667;28;20024;-66
2022/08/06 09:02:11;;;;;;;7.80;7.50;;;;;;;-143.83;100.00;62900.06;5114243;28;20509;-65
2022/08/06 09:04:37;;;;;;;7.70;7.40;;;;;;;-143.83;100.00;62900.06;5114652;28;20035;-65
2022/08/06 09:07:03;;;;;;;7.60;7.30;;;;;;;-143.83;100.00;62900.06;5113330;28;20523;-66
2022/08/06 09:09:31;;;;;;;7.80;7.50;;;;;;;-143.83;100.00;62900.06;5114042;28;20080;-65
2022/08/06 09:11:57;;;;;;;7.60;7.30;;;;;;;-143.83;100.00;62900.06;5114366;28;20043;-65
2022/08/06 09:14:23;;;;;;;7.80;7.50;;;;;;;-143.83;100.00;62900.06;5114094;28;20047;-65
2022/08/06 09:16:49;;;;;;;7.63;7.32;;;;;;;-143.83;100.00;62900.06;5114340;28;20501;-66
2022/08/06 09:19:15;;;;;;;7.60;7.30;;;;;;;-143.83;100.00;62900.06;5114094;28;20038;-65
2022/08/06 09:21:42;;;;;;;7.38;7.07;;;;;;;-143.83;100.00;62900.06;5113995;28;20560;-66
2022/08/06 09:24:08;;;;;;;7.55;7.25;;;;;;;-143.83;100.00;62900.06;5100620;28;20031;-66
2022/08/06 09:26:34;;;;;;;7.60;7.30;;;;;;;-143.83;100.00;62900.06;5114102;28;20106;-66
2022/08/06 09:29:00;;;;;;;7.80;7.50;;;;;;;-143.83;100.00;62900.06;5113936;28;20218;-66
2022/08/06 09:31:25;;;;;;;7.80;7.50;;;;;;;-143.83;100.00;62900.06;5113784;28;20027;-66
2022/08/06 09:34:00;;;;;;;7.35;7.05;;;;;;;-143.83;100.00;62900.06;5113799;28;20020;-66
2022/08/06 09:36:27;;;;;;;7.70;7.40;;;;;;;-143.83;100.00;62900.06;5113638;28;20390;-66
2022/08/06 09:38:59;;;;;;;7.70;7.40;;;;;;;-143.83;100.00;62900.06;5109367;28;20475;-65
2022/08/06 09:41:28;;;;;;;7.60;7.30;;;;;;;-143.83;100.00;62900.06;5112645;28;20118;-65
2022/08/06 09:43:57;;;;;;;7.57;7.28;;;;;;;-143.83;100.00;62900.06;5113555;28;20040;-66
2022/08/06 09:46:55;;;;;;;7.90;7.60;;;;;;;-143.83;100.00;62900.06;5113587;28;20027;-65
2022/08/06 09:49:20;;;;;;;7.63;7.32;;;;;;;-143.83;100.00;62900.06;5089937;28;20038;-65
2022/08/06 09:51:46;;;;;;;7.85;7.55;;;;;;;-143.83;100.00;62900.06;5113195;28;20019;-65
2022/08/06 09:54:15;;;;;;;7.93;7.63;;;;;;;-143.83;100.00;62900.06;5113086;28;20387;-65
2022/08/06 09:56:42;;;;;;;7.40;7.10;;;;;;;-143.83;100.00;62900.06;5112310;28;20032;-65
2022/08/06 09:59:09;;;;;;;7.40;7.10;;;;;;;-143.83;100.00;62900.06;5113648;28;20031;-65
2022/08/06 10:01:43;;;;;;;7.35;7.05;;;;;;;-143.83;100.00;62900.06;5113684;28;20506;-65
2022/08/06 10:04:24;;;;;;;7.70;7.40;;;;;;;-143.83;100.00;62900.06;5113059;28;20027;-65
2022/08/06 10:06:55;;;;;;;7.43;7.13;;;;;;;-143.83;100.00;62900.06;5113320;28;20621;-65
2022/08/06 10:09:22;;;;;;;7.55;7.25;;;;;;;-143.83;100.00;62900.06;5113134;28;20042;-65
2022/08/06 10:11:48;;;;;;;7.70;7.40;;;;;;;-143.83;100.00;62900.06;5112686;28;20015;-67
2022/08/06 10:14:25;;;;;;;7.50;7.20;;;;;;;-143.83;100.00;62900.06;5112254;28;20034;-66
2022/08/06 10:17:13;;;;;;;7.40;7.10;;;;;;;-143.83;100.00;62900.06;5113077;28;20035;-66
2022/08/06 10:19:41;;;;;;;7.80;7.50;;;;;;;-143.83;100.00;62900.06;5112751;28;20167;-65
2022/08/06 10:22:17;;;;;;;7.85;7.55;;;;;;;-143.83;100.00;62900.06;5112984;28;20027;-66
2022/08/06 10:24:50;;;;;;;8.20;7.90;;;;;;;-143.83;100.00;62900.06;5112859;28;20102;-66
2022/08/06 10:27:25;;;;;;;7.57;7.28;;;;;;;-143.83;100.00;62900.06;5112809;28;20114;-65
2022/08/06 10:29:58;;;;;;;7.80;7.50;;;;;;;-143.83;100.00;62900.06;5112728;28;20020;-65
2022/08/06 10:32:43;;;;;;;7.97;7.68;;;;;;;-143.83;100.00;62900.06;5111405;28;20110;-66
2022/08/06 10:35:10;;;;;;;7.72;7.43;;;;;;;-143.83;100.00;62900.06;5111063;28;20428;-65
2022/08/06 10:37:41;;;;;;;7.85;7.55;;;;;;;-143.83;100.00;62900.06;5112402;28;20035;-66
2022/08/06 10:40:09;;;;;;;7.90;7.60;;;;;;;-143.83;100.00;62900.06;5115151;27;20465;-65
2022/08/06 10:42:34;;;;;;;7.80;7.50;;;;;;;-143.83;100.00;62900.06;5098173;28;20031;-65
2022/08/06 10:45:02;;;;;;;7.70;7.40;;;;;;;-143.83;100.00;62900.06;5111797;28;20046;-65
2022/08/06 10:47:28;;;;;;;7.78;7.47;;;;;;;-143.83;100.00;62900.06;5111066;28;20026;-66
2022/08/06 10:49:55;;;;;;;7.90;7.60;;;;;;;-143.83;100.00;62900.06;5112171;28;20023;-65
2022/08/06 10:52:21;;;;;;;8.10;7.80;;;;;;;-143.83;100.00;62900.06;5111796;28;20467;-65
2022/08/06 10:54:47;;;;;;;7.95;7.65;;;;;;;-143.83;100.00;62900.06;5112094;28;20026;-65
2022/08/06 10:57:14;;;;;;;8.20;7.90;;;;;;;-143.83;100.00;62900.06;5112346;28;20027;-66
2022/08/06 10:59:40;;;;;;;7.90;7.60;;;;;;;-143.83;100.00;62900.06;5111773;28;20391;-65
2022/08/06 11:02:34;;;;;;;7.72;7.43;;;;;;;-143.83;100.00;62900.06;5111439;28;20466;-65
2022/08/06 11:05:08;;;;;;;7.80;7.50;;;;;;;-143.83;100.00;62900.06;5110688;28;20032;-65
2022/08/06 11:07:52;;;;;;;7.90;7.60;;;;;;;-143.83;100.00;62900.06;5111882;28;20044;-64
2022/08/06 11:10:59;;;;;;;7.68;7.38;;;;;;;-143.83;100.00;62900.06;5099122;28;20020;-65
2022/08/06 11:13:59;;;;;;;7.88;7.57;;;;;;;-143.83;100.00;62900.06;5102483;28;20023;-65
2022/08/06 11:16:27;;;;;;;7.90;7.60;;;;;;;-143.83;100.00;62900.06;5111822;28;20019;-65
2022/08/06 11:19:01;;;;;;;7.65;7.35;;;;;;;-143.83;100.00;62900.06;5111923;28;20525;-65
2022/08/06 11:21:38;;;;;;;7.60;7.30;;;;;;;-143.83;100.00;62900.06;5111289;28;20035;-65
2022/08/06 11:24:04;;;;;;;7.60;7.30;;;;;;;-143.83;100.00;62900.06;5111325;28;20360;-65
2022/08/06 11:26:39;;;;;;;7.60;7.30;;;;;;;-143.83;100.00;62900.06;5111777;28;20030;-66